Time;durP1;ratioP1;P1;durP2;ratioP2;P2;SDS_P1;SDS_P2;PMS_P1;PMS_P2;Temp;Humidity;BMP_temperature;BMP_pressure;BME280_temperature;BME280_humidity;BME280_pressure;Samples;Min_cycle;Max_cycle;Signal;HPM_P1;HPM_P2
2022/08/16 00:00:43;;;;;;;9.90;7.32;;;;;;;;;;5025626;28;20499;-62
2022/08/16 00:03:12;;;;;;;11.93;7.05;;;;;;;;;;4998402;28;20049;-56
2022/08/16 00:05:38;;;;;;;;;;;;;;;;;;5026647;28;20068;-56
2022/08/16 00:08:04;;;;;;;9.13;6.75;;;;;;;;;;5026713;28;20272;-53
2022/08/16 00:10:34;;;;;;;12.77;8.52;;;;;;;;;;5025998;28;20080;-51
2022/08/16 00:13:01;;;;;;;13.15;7.93;;;;;;;;;;5008885;28;20057;-48
2022/08/16 00:15:39;;;;;;;15.25;7.18;;;;;;;;;;5025805;28;20050;-62
2022/08/16 00:18:05;;;;;;;12.80;7.15;;;;;;;;;;5023403;28;20096;-57
2022/08/16 00:20:33;;;;;;;12.88;7.35;;;;;;;;;;5026819;28;20049;-64
2022/08/16 00:22:59;;;;;;;10.25;7.22;;;;;;;;;;5006994;28;20188;-51
2022/08/16 00:25:25;;;;;;;13.38;7.15;;;;;;;;;;5009977;28;20041;-56
2022/08/16 00:27:51;;;;;;;11.80;7.38;;;;;;;;;;5021056;28;20045;-63
2022/08/16 00:30:19;;;;;;;11.35;7.13;;;;;;;;;;5009264;28;20486;-57
2022/08/16 00:32:46;;;;;;;15.90;7.53;;;;;;;;;;5026794;28;20124;-54
2022/08/16 00:35:14;;;;;;;8.85;7.13;;;;;;;;;;5021749;28;20053;-59
2022/08/16 00:37:40;;;;;;;10.25;8.32;;;;;;;;;;5027481;28;20170;-53
2022/08/16 00:40:07;;;;;;;12.43;8.10;;;;;;;;;;5023331;28;22131;-64
2022/08/16 00:42:34;;;;;;;16.25;8.18;;;;;;;;;;5026123;28;20045;-55
2022/08/16 00:45:03;;;;;;;9.25;7.55;;;;;;;;;;5025705;28;20136;-59
2022/08/16 00:47:29;;;;;;;10.93;7.43;;;;;;;;;;5003717;28;20096;-48
2022/08/16 00:49:55;;;;;;;12.52;8.10;;;;;;;;;;4996592;28;20730;-61
2022/08/16 00:52:22;;;;;;;15.73;8.38;;;;;;;;;;5023180;28;20083;-53
2022/08/16 00:54:48;;;;;;;9.65;8.48;;;;;;;;;;5027090;28;20051;-59
2022/08/16 00:57:14;;;;;;;10.88;8.30;;;;;;;;;;5025521;28;20052;-55
2022/08/16 00:59:41;;;;;;;17.92;8.77;;;;;;;;;;5026305;28;20065;-56
2022/08/16 01:02:09;;;;;;;10.60;8.63;;;;;;;;;;5022647;28;20084;-56
2022/08/16 01:04:35;;;;;;;12.25;8.77;;;;;;;;;;5026034;28;20053;-54
2022/08/16 01:07:03;;;;;;;13.70;9.32;;;;;;;;;;5007655;28;20029;-51
2022/08/16 01:09:34;;;;;;;16.45;9.02;;;;;;;;;;4987998;28;20065;-55
2022/08/16 01:12:01;;;;;;;11.88;9.23;;;;;;;;;;5024852;28;20053;-63
2022/08/16 01:14:30;;;;;;;13.05;9.00;;;;;;;;;;5006101;28;20488;-60
2022/08/16 01:16:57;;;;;;;15.43;9.00;;;;;;;;;;5016749;28;20041;-57
2022/08/16 01:19:31;;;;;;;19.40;9.43;;;;;;;;;;5025135;28;20091;-61
2022/08/16 01:22:00;;;;;;;16.38;10.05;;;;;;;;;;5009156;28;20045;-58
2022/08/16 01:24:32;;;;;;;22.13;9.98;;;;;;;;;;5007743;28;20396;-51
2022/08/16 01:27:07;;;;;;;14.75;9.70;;;;;;;;;;5019898;28;20148;-62
2022/08/16 01:29:41;;;;;;;11.23;8.82;;;;;;;;;;5004012;28;20049;-57
2022/08/16 01:32:07;;;;;;;15.27;10.07;;;;;;;;;;5024518;28;20124;-53
2022/08/16 01:34:33;;;;;;;13.48;9.00;;;;;;;;;;5026645;28;20043;-53
2022/08/16 01:37:01;;;;;;;12.82;9.63;;;;;;;;;;5024925;28;20528;-55
2022/08/16 01:39:27;;;;;;;13.55;8.75;;;;;;;;;;5025323;28;20049;-56
2022/08/16 01:41:53;;;;;;;10.30;8.90;;;;;;;;;;5026070;28;20536;-56
2022/08/16 01:44:19;;;;;;;12.77;9.20;;;;;;;;;;5018833;28;20774;-56
2022/08/16 01:46:47;;;;;;;15.27;9.20;;;;;;;;;;5028567;28;20056;-56
2022/08/16 01:49:18;;;;;;;14.40;10.00;;;;;;;;;;5011763;28;20049;-61
2022/08/16 01:51:45;;;;;;;12.65;8.73;;;;;;;;;;5012164;28;20046;-56
2022/08/16 01:54:12;;;;;;;10.50;8.45;;;;;;;;;;5028758;28;20049;-61
2022/08/16 01:56:38;;;;;;;12.65;9.32;;;;;;;;;;5014579;28;20482;-57
2022/08/16 01:59:06;;;;;;;13.95;9.38;;;;;;;;;;5024413;28;20104;-52
2022/08/16 02:01:33;;;;;;;10.60;9.35;;;;;;;;;;5028779;28;20045;-62
2022/08/16 02:03:59;;;;;;;12.15;9.20;;;;;;;;;;5024237;28;20072;-51
2022/08/16 02:06:26;;;;;;;17.95;9.52;;;;;;;;;;5028804;28;20276;-62
2022/08/16 02:08:53;;;;;;;11.90;9.18;;;;;;;;;;5011413;28;20407;-59
2022/08/16 02:11:20;;;;;;;14.15;8.90;;;;;;;;;;5023520;28;20393;-62
2022/08/16 02:13:46;;;;;;;11.52;9.57;;;;;;;;;;5030168;28;20115;-54
2022/08/16 02:16:12;;;;;;;11.95;9.75;;;;;;;;;;5029086;28;20045;-54
2022/08/16 02:18:39;;;;;;;11.48;9.02;;;;;;;;;;5023828;28;20081;-59
2022/08/16 02:21:05;;;;;;;11.73;9.45;;;;;;;;;;5029767;28;20499;-52
2022/08/16 02:23:33;;;;;;;11.02;9.63;;;;;;;;;;5028331;28;20045;-64
2022/08/16 02:25:59;;;;;;;12.80;9.05;;;;;;;;;;5029988;28;20045;-55
2022/08/16 02:28:25;;;;;;;13.30;9.18;;;;;;;;;;5028704;28;20563;-54
2022/08/16 02:30:53;;;;;;;10.82;9.32;;;;;;;;;;5027859;28;20056;-62
2022/08/16 02:33:20;;;;;;;14.80;8.48;;;;;;;;;;5028119;28;20107;-53
2022/08/16 02:35:46;;;;;;;17.98;9.30;;;;;;;;;;5029555;28;20041;-55
2022/08/16 02:38:12;;;;;;;11.27;8.80;;;;;;;;;;5011327;28;20490;-58
2022/08/16 02:40:39;;;;;;;14.27;9.43;;;;;;;;;;5029011;28;20096;-54
2022/08/16 02:43:05;;;;;;;12.13;9.38;;;;;;;;;;4980352;28;20050;-57
2022/08/16 02:45:31;;;;;;;17.08;9.38;;;;;;;;;;5026109;28;20041;-56
2022/08/16 02:47:58;;;;;;;17.90;10.50;;;;;;;;;;5029681;28;20046;-59
2022/08/16 02:50:24;;;;;;;14.55;10.13;;;;;;;;;;5009336;28;20053;-55
2022/08/16 02:52:50;;;;;;;14.82;10.90;;;;;;;;;;5020329;28;20092;-54
2022/08/16 02:55:17;;;;;;;13.02;10.23;;;;;;;;;;5026994;28;20081;-51
2022/08/16 02:57:43;;;;;;;13.77;11.48;;;;;;;;;;5027663;28;20045;-58
2022/08/16 03:00:12;;;;;;;15.65;11.35;;;;;;;;;;5008488;28;20056;-53
2022/08/16 03:02:39;;;;;;;19.33;11.70;;;;;;;;;;5027053;28;20072;-57
2022/08/16 03:05:06;;;;;;;14.60;12.50;;;;;;;;;;5027533;28;20037;-53
2022/08/16 03:07:32;;;;;;;17.40;11.93;;;;;;;;;;5027331;28;20199;-62
2022/08/16 03:09:58;;;;;;;16.90;12.00;;;;;;;;;;5028962;28;20202;-59
2022/08/16 03:12:25;;;;;;;18.23;12.63;;;;;;;;;;5027887;28;20072;-57
2022/08/16 03:14:51;;;;;;;14.45;12.23;;;;;;;;;;5028763;28;20045;-61
2022/08/16 03:17:17;;;;;;;14.18;12.43;;;;;;;;;;5009092;28;20045;-58
2022/08/16 03:19:43;;;;;;;23.20;13.13;;;;;;;;;;5027701;28;20046;-59
2022/08/16 03:22:09;;;;;;;15.95;13.23;;;;;;;;;;5006407;28;20119;-59
2022/08/16 03:24:35;;;;;;;14.98;13.15;;;;;;;;;;5027125;28;20049;-57
2022/08/16 03:27:02;;;;;;;21.40;12.80;;;;;;;;;;5028011;28;20042;-55
2022/08/16 03:29:30;;;;;;;18.23;13.93;;;;;;;;;;5027108;28;20045;-61
2022/08/16 03:31:57;;;;;;;24.90;13.00;;;;;;;;;;5028159;28;20056;-65
2022/08/16 03:34:23;;;;;;;18.60;13.35;;;;;;;;;;5027971;28;20053;-57
2022/08/16 03:36:49;;;;;;;20.70;13.98;;;;;;;;;;5009996;28;20046;-57
2022/08/16 03:39:15;;;;;;;23.15;13.80;;;;;;;;;;5028693;28;20582;-63
2022/08/16 03:41:41;;;;;;;22.48;12.80;;;;;;;;;;5027253;28;20046;-55
2022/08/16 03:44:07;;;;;;;16.23;13.50;;;;;;;;;;5028678;28;20038;-53
2022/08/16 03:46:34;;;;;;;17.02;12.82;;;;;;;;;;5024217;28;20049;-62
2022/08/16 03:49:00;;;;;;;17.55;11.30;;;;;;;;;;5028147;28;20096;-63
2022/08/16 03:51:26;;;;;;;17.45;12.38;;;;;;;;;;5027175;28;20072;-57
2022/08/16 03:53:52;;;;;;;12.98;11.40;;;;;;;;;;5027877;28;20395;-60
2022/08/16 03:56:19;;;;;;;21.33;12.43;;;;;;;;;;5027572;28;20045;-52
2022/08/16 03:58:45;;;;;;;17.85;11.65;;;;;;;;;;5026215;28;20077;-52
2022/08/16 04:01:11;;;;;;;25.88;12.30;;;;;;;;;;5027631;28;20073;-57
2022/08/16 04:03:37;;;;;;;16.45;12.90;;;;;;;;;;5008852;28;20049;-60
2022/08/16 04:06:04;;;;;;;15.35;12.13;;;;;;;;;;5028199;28;20056;-55
2022/08/16 04:08:31;;;;;;;15.90;12.10;;;;;;;;;;5007351;28;20421;-49
2022/08/16 04:10:57;;;;;;;15.88;12.75;;;;;;;;;;5027617;28;20448;-55
2022/08/16 04:13:23;;;;;;;23.60;13.00;;;;;;;;;;5027552;28;20045;-58
2022/08/16 04:15:49;;;;;;;14.05;11.55;;;;;;;;;;5026748;28;20053;-51
2022/08/16 04:18:16;;;;;;;16.85;11.60;;;;;;;;;;5020520;28;20049;-60
2022/08/16 04:20:42;;;;;;;14.82;11.55;;;;;;;;;;4988801;28;20060;-52
2022/08/16 04:23:08;;;;;;;15.02;11.60;;;;;;;;;;5009301;28;20079;-62
2022/08/16 04:25:35;;;;;;;18.45;12.13;;;;;;;;;;5026300;28;20037;-57
2022/08/16 04:28:02;;;;;;;17.98;11.80;;;;;;;;;;5025922;28;20034;-58
2022/08/16 04:30:28;;;;;;;14.10;12.35;;;;;;;;;;5019348;28;20460;-61
2022/08/16 04:32:55;;;;;;;16.10;11.55;;;;;;;;;;5023689;28;20068;-56
2022/08/16 04:35:22;;;;;;;22.95;12.70;;;;;;;;;;5027211;28;20046;-53
2022/08/16 04:37:49;;;;;;;19.70;12.10;;;;;;;;;;5008829;28;20107;-59
2022/08/16 04:40:15;;;;;;;18.10;12.68;;;;;;;;;;5025481;28;20033;-54
2022/08/16 04:42:41;;;;;;;22.58;12.45;;;;;;;;;;5018918;28;20045;-53
2022/08/16 04:45:09;;;;;;;20.10;12.25;;;;;;;;;;5025734;28;20047;-52
2022/08/16 04:47:35;;;;;;;18.55;12.50;;;;;;;;;;5010117;28;20129;-52
2022/08/16 04:50:03;;;;;;;16.88;12.82;;;;;;;;;;5026809;28;20049;-51
2022/08/16 04:52:32;;;;;;;15.95;12.07;;;;;;;;;;5003503;28;20056;-59
2022/08/16 04:54:58;;;;;;;17.45;11.52;;;;;;;;;;5022224;28;20072;-57
2022/08/16 04:57:24;;;;;;;13.88;11.50;;;;;;;;;;5006716;28;20057;-64
2022/08/16 04:59:50;;;;;;;15.45;11.68;;;;;;;;;;5006053;28;20049;-54
2022/08/16 05:02:16;;;;;;;17.90;11.68;;;;;;;;;;4997477;28;20037;-55
2022/08/16 05:04:43;;;;;;;16.58;12.73;;;;;;;;;;5025957;28;20049;-51
2022/08/16 05:07:09;;;;;;;19.90;12.20;;;;;;;;;;5007177;28;20494;-63
2022/08/16 05:09:35;;;;;;;18.75;12.88;;;;;;;;;;5026045;28;20160;-54
2022/08/16 05:12:01;;;;;;;22.15;13.77;;;;;;;;;;5025694;28;20046;-64
2022/08/16 05:14:27;;;;;;;20.10;12.25;;;;;;;;;;5008958;28;20049;-59
2022/08/16 05:16:53;;;;;;;19.45;12.95;;;;;;;;;;5015145;28;20060;-65
2022/08/16 05:19:19;;;;;;;18.42;12.10;;;;;;;;;;5025986;28;20053;-54
2022/08/16 05:21:45;;;;;;;14.40;11.85;;;;;;;;;;5025341;28;20046;-58
2022/08/16 05:24:11;;;;;;;16.90;12.95;;;;;;;;;;5007564;28;20049;-61
2022/08/16 05:26:37;;;;;;;19.52;12.85;;;;;;;;;;5015054;28;20081;-61
2022/08/16 05:29:06;;;;;;;23.67;12.85;;;;;;;;;;5025889;28;20404;-52
2022/08/16 05:31:32;;;;;;;20.00;13.43;;;;;;;;;;5025340;28;20045;-57
2022/08/16 05:33:59;;;;;;;18.83;12.70;;;;;;;;;;5008027;28;20188;-60
2022/08/16 05:36:26;;;;;;;14.05;11.73;;;;;;;;;;5026644;28;20411;-60
2022/08/16 05:38:52;;;;;;;16.98;13.65;;;;;;;;;;5025673;28;20116;-55
2022/08/16 05:41:18;;;;;;;19.80;13.70;;;;;;;;;;5026433;28;20077;-59
2022/08/16 05:43:45;;;;;;;17.45;13.50;;;;;;;;;;5019791;28;20476;-50
2022/08/16 05:46:11;;;;;;;16.20;12.85;;;;;;;;;;4995022;28;20416;-55
2022/08/16 05:48:37;;;;;;;20.30;14.07;;;;;;;;;;5025972;28;20124;-54
2022/08/16 05:51:03;;;;;;;16.35;13.43;;;;;;;;;;5007548;28;20049;-52
2022/08/16 05:53:29;;;;;;;16.15;13.15;;;;;;;;;;5025930;28;20050;-61
2022/08/16 05:55:55;;;;;;;20.55;13.93;;;;;;;;;;5025261;28;20073;-56
2022/08/16 05:58:22;;;;;;;23.92;13.65;;;;;;;;;;5024085;28;20096;-51
2022/08/16 06:00:48;;;;;;;21.92;13.38;;;;;;;;;;5007073;28;20089;-54
2022/08/16 06:03:19;;;;;;;21.63;13.02;;;;;;;;;;5017635;28;20107;-55
2022/08/16 06:05:46;;;;;;;22.88;13.43;;;;;;;;;;5008480;28;20052;-54
2022/08/16 06:08:12;;;;;;;22.10;14.30;;;;;;;;;;5023526;28;20045;-58
2022/08/16 06:10:38;;;;;;;20.27;14.35;;;;;;;;;;5022589;28;20133;-56
2022/08/16 06:13:04;;;;;;;23.50;14.40;;;;;;;;;;5003415;28;20045;-51
2022/08/16 06:15:30;;;;;;;17.00;13.23;;;;;;;;;;5001883;28;20555;-64
2022/08/16 06:17:58;;;;;;;21.00;13.88;;;;;;;;;;5025176;28;20053;-57
2022/08/16 06:20:25;;;;;;;16.50;13.23;;;;;;;;;;5019549;28;20053;-61
2022/08/16 06:22:54;;;;;;;24.13;14.68;;;;;;;;;;5025414;28;20116;-56
2022/08/16 06:25:20;;;;;;;19.50;14.00;;;;;;;;;;5007624;28;20979;-59
2022/08/16 06:27:46;;;;;;;27.15;14.52;;;;;;;;;;5005915;28;20115;-55
2022/08/16 06:30:13;;;;;;;23.60;15.20;;;;;;;;;;4985064;28;20536;-53
2022/08/16 06:32:39;;;;;;;18.58;14.43;;;;;;;;;;5024358;28;20546;-57
2022/08/16 06:35:05;;;;;;;21.70;14.77;;;;;;;;;;5027316;28;20096;-61
2022/08/16 06:37:32;;;;;;;15.48;13.18;;;;;;;;;;5029903;28;20119;-59
2022/08/16 06:39:58;;;;;;;20.42;13.38;;;;;;;;;;5011272;28;20124;-52
2022/08/16 06:42:24;;;;;;;18.80;13.50;;;;;;;;;;5011329;28;20056;-47
2022/08/16 06:44:50;;;;;;;17.02;14.73;;;;;;;;;;5010615;28;20061;-57
2022/08/16 06:47:16;;;;;;;20.42;14.05;;;;;;;;;;5028705;28;20037;-65
2022/08/16 06:49:43;;;;;;;18.38;15.07;;;;;;;;;;4995115;28;20053;-59
2022/08/16 06:52:09;;;;;;;20.67;14.80;;;;;;;;;;5028015;28;20470;-64
2022/08/16 06:54:35;;;;;;;19.13;13.95;;;;;;;;;;5028025;28;20045;-56
2022/08/16 06:57:05;;;;;;;20.88;14.38;;;;;;;;;;5028075;28;20053;-60
2022/08/16 06:59:31;;;;;;;20.73;14.32;;;;;;;;;;5028455;28;20550;-55
2022/08/16 07:01:58;;;;;;;15.98;12.93;;;;;;;;;;5018082;28;20115;-58
2022/08/16 07:04:25;;;;;;;16.70;13.05;;;;;;;;;;5027785;28;20099;-57
2022/08/16 07:06:51;;;;;;;26.25;14.43;;;;;;;;;;5027966;28;20038;-56
2022/08/16 07:09:17;;;;;;;18.45;12.00;;;;;;;;;;5027460;28;20595;-58
2022/08/16 07:11:43;;;;;;;19.10;13.38;;;;;;;;;;5010076;28;20069;-54
2022/08/16 07:14:11;;;;;;;20.35;12.57;;;;;;;;;;5016998;28;20049;-60
2022/08/16 07:16:37;;;;;;;16.20;12.38;;;;;;;;;;5027781;28;20052;-58
2022/08/16 07:19:03;;;;;;;15.23;13.02;;;;;;;;;;5028834;28;20163;-51
2022/08/16 07:21:29;;;;;;;20.42;12.82;;;;;;;;;;5024398;28;20076;-64
2022/08/16 07:23:55;;;;;;;19.25;12.25;;;;;;;;;;5015768;28;20050;-53
2022/08/16 07:26:23;;;;;;;16.67;12.55;;;;;;;;;;5007264;28;20049;-62
2022/08/16 07:28:49;;;;;;;13.50;11.93;;;;;;;;;;5015159;28;20116;-57
2022/08/16 07:31:16;;;;;;;13.95;11.85;;;;;;;;;;5022558;28;20475;-60
2022/08/16 07:33:43;;;;;;;17.10;12.15;;;;;;;;;;5003838;28;20056;-59
2022/08/16 07:36:10;;;;;;;16.30;12.93;;;;;;;;;;5025736;28;20050;-56
2022/08/16 07:38:42;;;;;;;19.67;12.80;;;;;;;;;;5006624;28;20053;-64
2022/08/16 07:41:08;;;;;;;15.25;11.05;;;;;;;;;;5024085;28;20043;-51
2022/08/16 07:43:34;;;;;;;13.15;10.75;;;;;;;;;;5012165;28;20041;-59
2022/08/16 07:46:01;;;;;;;16.88;10.85;;;;;;;;;;5009240;28;20048;-50
2022/08/16 07:48:27;;;;;;;16.95;10.80;;;;;;;;;;5001754;28;20041;-53
2022/08/16 07:50:54;;;;;;;21.88;11.02;;;;;;;;;;5010341;28;20064;-60
2022/08/16 07:53:20;;;;;;;13.27;10.02;;;;;;;;;;5022657;28;20128;-55
2022/08/16 07:55:47;;;;;;;21.50;11.18;;;;;;;;;;5009287;28;20053;-56
2022/08/16 07:58:13;;;;;;;14.50;10.63;;;;;;;;;;5025408;28;20483;-51
2022/08/16 08:00:40;;;;;;;16.60;10.55;;;;;;;;;;5021989;28;20083;-58
2022/08/16 08:03:06;;;;;;;17.95;10.05;;;;;;;;;;5007534;28;20049;-52
2022/08/16 08:05:32;;;;;;;16.60;11.15;;;;;;;;;;4991143;28;20072;-58
2022/08/16 08:07:58;;;;;;;15.32;10.75;;;;;;;;;;5009711;28;20029;-52
2022/08/16 08:10:26;;;;;;;14.13;10.32;;;;;;;;;;5009260;28;20053;-54
2022/08/16 08:12:53;;;;;;;14.65;10.02;;;;;;;;;;5026798;28;20128;-55
2022/08/16 08:15:19;;;;;;;13.73;10.18;;;;;;;;;;5021242;28;20120;-57
2022/08/16 08:17:49;;;;;;;17.40;9.60;;;;;;;;;;5025860;28;20057;-53
2022/08/16 08:20:15;;;;;;;;;;;;;;;;;;5010602;28;20077;-63
2022/08/16 08:22:45;;;;;;;14.40;9.85;;;;;;;;;;5007465;28;19964;-58
2022/08/16 08:25:11;;;;;;;19.80;10.10;;;;;;;;;;5026047;28;20072;-49
2022/08/16 08:27:37;;;;;;;13.43;10.00;;;;;;;;;;5007270;28;20060;-65
2022/08/16 08:30:03;;;;;;;19.17;9.52;;;;;;;;;;5002450;28;20119;-57
2022/08/16 08:32:30;;;;;;;16.58;9.63;;;;;;;;;;5002711;28;20046;-52
2022/08/16 08:34:57;;;;;;;10.85;7.30;;;;;;;;;;5018071;28;20072;-58
2022/08/16 08:37:24;;;;;;;8.45;6.30;;;;;;;;;;5000866;28;20495;-57
2022/08/16 08:39:50;;;;;;;9.98;6.72;;;;;;;;;;5018008;28;20060;-62
2022/08/16 08:42:16;;;;;;;7.40;5.70;;;;;;;;;;5001696;28;20042;-57
2022/08/16 08:44:42;;;;;;;12.38;6.13;;;;;;;;;;5016908;28;20049;-48
2022/08/16 08:47:09;;;;;;;19.40;6.80;;;;;;;;;;5005690;28;20652;-60
2022/08/16 08:49:36;;;;;;;6.70;5.78;;;;;;;;;;5025939;28;20124;-51
2022/08/16 08:52:03;;;;;;;11.85;6.22;;;;;;;;;;5024758;28;20045;-59
2022/08/16 08:54:29;;;;;;;6.03;5.15;;;;;;;;;;5025540;28;20045;-59
2022/08/16 08:56:56;;;;;;;7.72;5.45;;;;;;;;;;5004505;28;20397;-61
2022/08/16 08:59:22;;;;;;;10.48;6.22;;;;;;;;;;4992207;28;20041;-54
2022/08/16 09:01:49;;;;;;;9.40;5.00;;;;;;;;;;5021425;28;20073;-52
2022/08/16 09:04:15;;;;;;;8.73;4.80;;;;;;;;;;5025380;28;20077;-57
2022/08/16 09:06:42;;;;;;;7.25;4.65;;;;;;;;;;5006454;28;20144;-52
2022/08/16 09:09:08;;;;;;;11.90;4.68;;;;;;;;;;5002248;28;20061;-63
2022/08/16 09:11:35;;;;;;;9.10;4.28;;;;;;;;;;5006233;28;20037;-54
2022/08/16 09:14:01;;;;;;;7.07;4.55;;;;;;;;;;5003459;28;20460;-57
2022/08/16 09:16:28;;;;;;;7.15;4.57;;;;;;;;;;5026817;28;20046;-54
2022/08/16 09:18:54;;;;;;;11.40;4.78;;;;;;;;;;4999055;28;20046;-60
2022/08/16 09:21:21;;;;;;;9.48;5.30;;;;;;;;;;5006374;28;20081;-56
2022/08/16 09:23:47;;;;;;;6.18;4.20;;;;;;;;;;4989014;28;20496;-51
2022/08/16 09:26:16;;;;;;;7.25;4.53;;;;;;;;;;4990892;28;20137;-53
2022/08/16 09:28:44;;;;;;;8.55;3.67;;;;;;;;;;5018964;28;20051;-58
2022/08/16 09:31:11;;;;;;;7.70;3.90;;;;;;;;;;4994050;28;20060;-66
2022/08/16 09:33:37;;;;;;;7.95;4.13;;;;;;;;;;5006971;28;20052;-65
2022/08/16 09:36:04;;;;;;;8.55;3.42;;;;;;;;;;5018775;28;20045;-66
2022/08/16 09:38:30;;;;;;;6.78;3.72;;;;;;;;;;5026149;28;20081;-64
2022/08/16 09:40:56;;;;;;;6.75;3.08;;;;;;;;;;5004843;28;20455;-64
2022/08/16 09:43:24;;;;;;;6.75;2.78;;;;;;;;;;5023768;28;20124;-66
2022/08/16 09:45:52;;;;;;;4.82;3.47;;;;;;;;;;5007340;28;20063;-56
2022/08/16 09:48:19;;;;;;;3.85;3.40;;;;;;;;;;5006392;28;20049;-60
2022/08/16 09:50:46;;;;;;;4.80;3.30;;;;;;;;;;5023833;28;21007;-65
2022/08/16 09:53:16;;;;;;;8.80;3.47;;;;;;;;;;4996567;28;20065;-61
2022/08/16 09:55:47;;;;;;;5.53;4.10;;;;;;;;;;5008730;28;20045;-59
2022/08/16 09:58:13;;;;;;;3.78;3.40;;;;;;;;;;4997854;28;20513;-49
2022/08/16 10:00:39;;;;;;;7.30;3.42;;;;;;;;;;5024188;28;20041;-60
2022/08/16 10:03:05;;;;;;;6.63;3.35;;;;;;;;;;4996611;28;20121;-61
2022/08/16 10:05:36;;;;;;;4.63;3.35;;;;;;;;;;5018873;28;20038;-54
2022/08/16 10:08:06;;;;;;;5.30;3.40;;;;;;;;;;5015403;28;20041;-60
2022/08/16 10:10:33;;;;;;;3.47;2.90;;;;;;;;;;5022477;28;20128;-54
2022/08/16 10:13:12;;;;;;;4.45;3.13;;;;;;;;;;5026120;28;20067;-55
2022/08/16 10:15:39;;;;;;;4.97;2.42;;;;;;;;;;4999863;28;20205;-56
2022/08/16 10:18:07;;;;;;;5.18;2.78;;;;;;;;;;5010230;28;20053;-62
2022/08/16 10:20:39;;;;;;;3.70;2.90;;;;;;;;;;5025176;28;20103;-59
2022/08/16 10:23:06;;;;;;;5.97;3.22;;;;;;;;;;5018874;28;20080;-57
2022/08/16 10:25:33;;;;;;;4.30;3.20;;;;;;;;;;5015923;28;20042;-54
2022/08/16 10:27:59;;;;;;;4.32;2.90;;;;;;;;;;5024762;28;20483;-64
2022/08/16 10:30:25;;;;;;;6.75;3.10;;;;;;;;;;5012589;28;20103;-66
2022/08/16 10:32:51;;;;;;;4.72;3.08;;;;;;;;;;5020302;28;20056;-60
2022/08/16 10:35:17;;;;;;;3.22;2.92;;;;;;;;;;5024945;28;20049;-64
2022/08/16 10:37:44;;;;;;;7.78;2.70;;;;;;;;;;4992602;28;20064;-57
2022/08/16 10:40:10;;;;;;;5.22;2.83;;;;;;;;;;5026102;28;20129;-62
2022/08/16 10:42:36;;;;;;;4.93;2.95;;;;;;;;;;5020582;28;20045;-65
2022/08/16 10:45:03;;;;;;;3.60;2.88;;;;;;;;;;5025279;28;20048;-61
2022/08/16 10:47:29;;;;;;;9.20;2.38;;;;;;;;;;5018395;28;20045;-59
2022/08/16 10:49:58;;;;;;;4.90;2.33;;;;;;;;;;5005155;28;20041;-66
2022/08/16 10:52:24;;;;;;;6.43;3.03;;;;;;;;;;5011123;28;20057;-58
2022/08/16 10:54:50;;;;;;;5.20;2.88;;;;;;;;;;5004917;28;20045;-59
2022/08/16 10:57:16;;;;;;;5.63;2.60;;;;;;;;;;4995733;28;20073;-53
2022/08/16 10:59:43;;;;;;;6.15;3.17;;;;;;;;;;5020210;28;20049;-58
2022/08/16 11:02:10;;;;;;;3.63;2.35;;;;;;;;;;5006370;28;20052;-55
2022/08/16 11:04:37;;;;;;;3.85;2.40;;;;;;;;;;5028824;28;20496;-60
2022/08/16 11:07:04;;;;;;;4.72;2.72;;;;;;;;;;5005823;28;20119;-66
2022/08/16 11:09:31;;;;;;;3.65;2.65;;;;;;;;;;5016724;28;20472;-56
2022/08/16 11:11:57;;;;;;;6.65;2.35;;;;;;;;;;5002506;28;20502;-66
2022/08/16 11:14:23;;;;;;;2.95;2.50;;;;;;;;;;5018644;28;20046;-66
2022/08/16 11:16:50;;;;;;;7.03;2.70;;;;;;;;;;5005589;28;20053;-63
2022/08/16 11:19:16;;;;;;;8.25;2.80;;;;;;;;;;5007123;28;20096;-57
2022/08/16 11:21:42;;;;;;;7.55;2.38;;;;;;;;;;5012679;28;20095;-59
2022/08/16 11:24:09;;;;;;;2.17;2.00;;;;;;;;;;5025393;28;20041;-57
2022/08/16 11:26:40;;;;;;;4.97;2.85;;;;;;;;;;5002336;28;20127;-55
2022/08/16 11:29:08;;;;;;;4.30;2.25;;;;;;;;;;5008266;28;20077;-57
2022/08/16 11:31:34;;;;;;;2.70;2.47;;;;;;;;;;5000479;28;20484;-57
2022/08/16 11:34:00;;;;;;;5.10;2.45;;;;;;;;;;4998498;28;20045;-67
2022/08/16 11:36:29;;;;;;;5.20;2.60;;;;;;;;;;5015963;28;20045;-65
2022/08/16 11:38:58;;;;;;;5.65;2.20;;;;;;;;;;5010307;28;20042;-55
2022/08/16 11:41:25;;;;;;;7.05;2.40;;;;;;;;;;5007502;28;20495;-62
2022/08/16 11:43:51;;;;;;;6.88;2.10;;;;;;;;;;5005905;28;20042;-61
2022/08/16 11:46:19;;;;;;;3.78;2.40;;;;;;;;;;5024478;28;20034;-58
2022/08/16 11:48:45;;;;;;;5.17;2.30;;;;;;;;;;5020271;28;20385;-59
2022/08/16 11:51:12;;;;;;;3.13;1.98;;;;;;;;;;5005669;28;20084;-55
2022/08/16 11:53:39;;;;;;;5.25;2.50;;;;;;;;;;4997950;28;20042;-66
2022/08/16 11:56:05;;;;;;;5.13;2.10;;;;;;;;;;5008749;28;20400;-61
2022/08/16 11:58:32;;;;;;;5.95;2.45;;;;;;;;;;5021713;28;20483;-56
2022/08/16 12:00:59;;;;;;;347.00;13.45;;;;;;;;;;5027785;28;20049;-55
2022/08/16 12:03:27;;;;;;;6.63;2.58;;;;;;;;;;5019501;28;20432;-59
2022/08/16 12:05:55;;;;;;;6.40;3.10;;;;;;;;;;5021438;28;20438;-60
2022/08/16 12:08:21;;;;;;;7.28;2.83;;;;;;;;;;5025440;28;20211;-58
2022/08/16 12:10:47;;;;;;;5.35;2.38;;;;;;;;;;5026271;28;20569;-56
2022/08/16 12:13:14;;;;;;;6.18;2.85;;;;;;;;;;5026374;28;20049;-62
2022/08/16 12:15:41;;;;;;;6.95;2.65;;;;;;;;;;5026793;28;20045;-55
2022/08/16 12:18:08;;;;;;;4.93;2.45;;;;;;;;;;5027859;28;20056;-60
2022/08/16 12:20:35;;;;;;;4.97;2.70;;;;;;;;;;5027120;28;20065;-55
2022/08/16 12:23:02;;;;;;;7.35;2.67;;;;;;;;;;5000959;28;20469;-64
2022/08/16 12:25:29;;;;;;;8.65;3.10;;;;;;;;;;5008279;28;20077;-51
2022/08/16 12:27:56;;;;;;;5.57;3.03;;;;;;;;;;5020366;28;20060;-55
2022/08/16 12:30:27;;;;;;;6.03;3.00;;;;;;;;;;5025911;28;20049;-59
2022/08/16 12:32:57;;;;;;;8.30;2.92;;;;;;;;;;5024184;28;20045;-64
2022/08/16 12:35:24;;;;;;;4.05;2.58;;;;;;;;;;5021860;28;20046;-51
2022/08/16 12:37:50;;;;;;;12.63;3.10;;;;;;;;;;4986791;28;20064;-58
2022/08/16 12:40:19;;;;;;;6.63;3.53;;;;;;;;;;5009270;28;20084;-56
2022/08/16 12:42:47;;;;;;;4.25;2.80;;;;;;;;;;5020868;28;20116;-62
2022/08/16 12:45:15;;;;;;;5.72;2.67;;;;;;;;;;5007670;28;20489;-62
2022/08/16 12:50:26;;;;;;;7.18;2.80;;;;;;;;;;5013054;28;20049;-59
2022/08/16 12:52:52;;;;;;;3.30;2.60;;;;;;;;;;5027939;28;20051;-60
2022/08/16 12:55:18;;;;;;;8.73;2.80;;;;;;;;;;5003748;28;20456;-56
2022/08/16 12:57:46;;;;;;;3.17;2.85;;;;;;;;;;5008159;28;20041;-56
2022/08/16 13:00:15;;;;;;;7.43;2.60;;;;;;;;;;5026922;28;20080;-53
2022/08/16 13:02:41;;;;;;;10.10;3.08;;;;;;;;;;5012973;28;20038;-53
2022/08/16 13:05:07;;;;;;;5.70;2.75;;;;;;;;;;5001022;28;20041;-54
2022/08/16 13:07:33;;;;;;;5.18;2.95;;;;;;;;;;5017482;28;20065;-63
2022/08/16 13:10:07;;;;;;;7.25;2.95;;;;;;;;;;4974281;28;20129;-58
2022/08/16 13:12:37;;;;;;;5.55;2.50;;;;;;;;;;5009556;28;20042;-61
2022/08/16 13:15:03;;;;;;;4.57;2.53;;;;;;;;;;5006954;28;20507;-58
2022/08/16 13:17:29;;;;;;;4.10;2.80;;;;;;;;;;4993206;28;20042;-62
2022/08/16 13:19:56;;;;;;;10.05;2.78;;;;;;;;;;5004747;28;20041;-54
2022/08/16 13:22:22;;;;;;;7.13;2.80;;;;;;;;;;5026606;28;20128;-56
2022/08/16 13:24:49;;;;;;;6.53;3.47;;;;;;;;;;5025884;28;20045;-61
2022/08/16 13:27:15;;;;;;;6.00;2.60;;;;;;;;;;5025053;28;20485;-53
2022/08/16 13:29:41;;;;;;;7.65;2.72;;;;;;;;;;4994130;28;20107;-65
2022/08/16 13:32:09;;;;;;;4.63;2.40;;;;;;;;;;5008766;28;20052;-58
2022/08/16 13:34:35;;;;;;;7.65;2.28;;;;;;;;;;5007492;28;20050;-51
2022/08/16 13:37:02;;;;;;;7.05;2.50;;;;;;;;;;5007974;28;20060;-61
2022/08/16 13:39:30;;;;;;;5.35;2.78;;;;;;;;;;5011216;28;20052;-59
2022/08/16 13:41:56;;;;;;;4.40;2.85;;;;;;;;;;5024578;28;20096;-56
2022/08/16 13:44:23;;;;;;;3.90;2.63;;;;;;;;;;5032693;28;20042;-60
2022/08/16 13:46:50;;;;;;;6.00;2.78;;;;;;;;;;5031996;28;20073;-57
2022/08/16 13:49:16;;;;;;;7.72;2.35;;;;;;;;;;5031141;28;20441;-54
2022/08/16 13:51:42;;;;;;;10.50;2.42;;;;;;;;;;5033284;28;20057;-54
2022/08/16 13:54:08;;;;;;;3.22;2.22;;;;;;;;;;5032471;28;20404;-57
2022/08/16 13:56:36;;;;;;;3.58;2.33;;;;;;;;;;5028203;28;20041;-54
2022/08/16 13:59:02;;;;;;;4.25;2.40;;;;;;;;;;5029263;28;20495;-65
2022/08/16 14:01:29;;;;;;;6.28;2.80;;;;;;;;;;5004142;28;20107;-55
2022/08/16 14:03:55;;;;;;;11.50;2.55;;;;;;;;;;5009725;28;20623;-58
2022/08/16 14:06:21;;;;;;;7.70;3.00;;;;;;;;;;5028936;28;20583;-62
2022/08/16 14:08:48;;;;;;;11.55;2.88;;;;;;;;;;4997300;28;20115;-59
2022/08/16 14:11:14;;;;;;;8.05;2.80;;;;;;;;;;5030173;28;20096;-59
2022/08/16 14:13:42;;;;;;;16.98;6.53;;;;;;;;;;5027059;28;20053;-58
2022/08/16 14:16:08;;;;;;;13.15;5.55;;;;;;;;;;5031080;28;20332;-52
2022/08/16 14:18:35;;;;;;;15.27;6.70;;;;;;;;;;5014249;28;20045;-54
2022/08/16 14:21:01;;;;;;;17.38;6.28;;;;;;;;;;5026782;28;20068;-55
2022/08/16 14:23:27;;;;;;;21.95;7.03;;;;;;;;;;5012545;28;20057;-67
2022/08/16 14:25:53;;;;;;;15.75;6.85;;;;;;;;;;5028399;28;20511;-60
2022/08/16 14:28:20;;;;;;;15.07;6.78;;;;;;;;;;5011895;28;20041;-60
2022/08/16 14:30:46;;;;;;;15.70;7.40;;;;;;;;;;5005466;28;20085;-57